Hauptseite
METAR-TAF:

METAR-TAF

Flughäfen :

Fliegerhorst Lechfeld

Lechfeld, Deutschland

Breite: 48-11N, Länge: 010-52E, Höhe: 555 m

Beobachtung

Neuester Wetterbericht von vor 39 Minuten, um 13:20 UTC
Wind 4 kt aus Süd/Südost
Temperatur 5°C
Luftfeuchtigkeit 65%
Luftdruck 1022 hPa
Sichtweite 10 km oder mehr

METAR: ETSL 241320Z 16004KT 9999 05/M01 Q1022 BLU+

Zeit: 14:59 (13:59 UTC)

Prognose

Neuester Wetterbericht von vor 2 Stunden und 47 Minuten, um 11:12 UTC
Gültige Prognose vom 24 um 11 UTC bis 24 um 18 UTC
Wind 3 kt aus Süd
Sichtweite 10 km oder mehr
Himmel klar
Übergehend zu
vom 24 um 16 UTC bis 24 um 18 UTC
Wind 2 kt aus Südwest
Sichtweite: 1112 m
Leicht bewölkt in der Höhe von 300 ft
Flacher Nebel

TAF: ETSL 241112Z 2411/2418 18003KT 9999 NSW SKC BECMG 2416/2418 22002KT 6000 MIFG FEW003 CANCEL 1112 BY ETGL

Wetterbeobachtungen und Prognosen von mehr als 4000 Flughäfen (METAR und TAF Bericht).

Die verfügbaren Stationen werden durch gelbe und rote Markierungen auf der Karte dargestellt.

Führen Sie die Maus auf sie, um den Namen der Station zu sehen.

Darauf klicken, um die Beobachtung von Wetterbeobachtungen und Prognosen zu sehen.

Um die Karte zu ändern : klicken Sie auf den grünen Tasten mit einem schwarzen Kreuz Zum Vergrößern, auf den grünen Button mit einem Gedankenstrich zu verkleinern, oder auf die grünen Pfeile für benachbarte Karten.


METAR-TAF: